sensor_id;sensor_type;location;lat;lon;timestamp;temperature;humidity
46720;DHT22;32452;51.382;-0.002;2023-12-20T00:00:07;5.70;99.90
46720;DHT22;32452;51.382;-0.002;2023-12-20T00:02:53;5.70;99.90
46720;DHT22;32452;51.382;-0.002;2023-12-20T00:05:38;5.70;99.90
46720;DHT22;32452;51.382;-0.002;2023-12-20T00:08:26;5.70;99.90
46720;DHT22;32452;51.382;-0.002;2023-12-20T00:11:11;5.60;99.90
46720;DHT22;32452;51.382;-0.002;2023-12-20T00:13:57;5.60;99.90
46720;DHT22;32452;51.382;-0.002;2023-12-20T00:16:43;5.60;99.90
46720;DHT22;32452;51.382;-0.002;2023-12-20T00:19:28;5.70;99.90
46720;DHT22;32452;51.382;-0.002;2023-12-20T00:22:14;5.70;99.90
46720;DHT22;32452;51.382;-0.002;2023-12-20T00:25:00;5.60;99.90
46720;DHT22;32452;51.382;-0.002;2023-12-20T00:27:45;5.70;99.90
46720;DHT22;32452;51.382;-0.002;2023-12-20T00:30:31;5.60;99.90
46720;DHT22;32452;51.382;-0.002;2023-12-20T00:33:17;5.60;99.90
46720;DHT22;32452;51.382;-0.002;2023-12-20T00:36:03;5.60;99.90
46720;DHT22;32452;51.382;-0.002;2023-12-20T00:38:48;5.60;99.90
46720;DHT22;32452;51.382;-0.002;2023-12-20T00:41:35;5.60;99.90
46720;DHT22;32452;51.382;-0.002;2023-12-20T00:44:20;5.60;99.90
46720;DHT22;32452;51.382;-0.002;2023-12-20T00:47:06;5.70;99.90
46720;DHT22;32452;51.382;-0.002;2023-12-20T00:49:52;5.60;99.90
46720;DHT22;32452;51.382;-0.002;2023-12-20T00:52:38;5.60;99.90
46720;DHT22;32452;51.382;-0.002;2023-12-20T00:55:23;5.60;99.90
46720;DHT22;32452;51.382;-0.002;2023-12-20T00:58:09;5.60;99.90
46720;DHT22;32452;51.382;-0.002;2023-12-20T01:00:55;5.60;99.90
46720;DHT22;32452;51.382;-0.002;2023-12-20T01:03:41;5.60;99.90
46720;DHT22;32452;51.382;-0.002;2023-12-20T01:06:26;5.60;99.90
46720;DHT22;32452;51.382;-0.002;2023-12-20T01:09:12;5.60;99.90
46720;DHT22;32452;51.382;-0.002;2023-12-20T01:11:58;5.60;99.90
46720;DHT22;32452;51.382;-0.002;2023-12-20T01:14:43;5.60;99.90
46720;DHT22;32452;51.382;-0.002;2023-12-20T01:17:29;5.60;99.90
46720;DHT22;32452;51.382;-0.002;2023-12-20T01:20:14;5.60;99.90
46720;DHT22;32452;51.382;-0.002;2023-12-20T01:23:00;5.60;99.90
46720;DHT22;32452;51.382;-0.002;2023-12-20T01:25:48;5.60;99.90
46720;DHT22;32452;51.382;-0.002;2023-12-20T01:28:34;5.60;99.90
46720;DHT22;32452;51.382;-0.002;2023-12-20T01:31:19;5.60;99.90
46720;DHT22;32452;51.382;-0.002;2023-12-20T01:34:05;5.60;99.90
46720;DHT22;32452;51.382;-0.002;2023-12-20T01:36:50;5.60;99.90
46720;DHT22;32452;51.382;-0.002;2023-12-20T01:39:37;5.60;99.90
46720;DHT22;32452;51.382;-0.002;2023-12-20T01:42:23;5.60;99.90
46720;DHT22;32452;51.382;-0.002;2023-12-20T01:45:09;5.60;99.90
46720;DHT22;32452;51.382;-0.002;2023-12-20T01:48:27;5.60;99.90
46720;DHT22;32452;51.382;-0.002;2023-12-20T01:51:13;5.60;99.90
46720;DHT22;32452;51.382;-0.002;2023-12-20T01:53:59;5.60;99.90
46720;DHT22;32452;51.382;-0.002;2023-12-20T01:56:44;5.60;99.90
46720;DHT22;32452;51.382;-0.002;2023-12-20T01:59:30;5.60;99.90
46720;DHT22;32452;51.382;-0.002;2023-12-20T02:02:16;5.60;99.90
46720;DHT22;32452;51.382;-0.002;2023-12-20T02:05:02;5.60;99.90
46720;DHT22;32452;51.382;-0.002;2023-12-20T02:07:49;5.60;99.90
46720;DHT22;32452;51.382;-0.002;2023-12-20T02:10:34;5.60;99.90
46720;DHT22;32452;51.382;-0.002;2023-12-20T02:13:20;5.60;99.90
46720;DHT22;32452;51.382;-0.002;2023-12-20T02:16:05;5.60;99.90
46720;DHT22;32452;51.382;-0.002;2023-12-20T02:18:52;5.60;99.90
46720;DHT22;32452;51.382;-0.002;2023-12-20T02:21:38;5.60;99.90
46720;DHT22;32452;51.382;-0.002;2023-12-20T02:24:24;5.60;99.90
46720;DHT22;32452;51.382;-0.002;2023-12-20T02:27:10;5.60;99.90
46720;DHT22;32452;51.382;-0.002;2023-12-20T02:29:55;5.60;99.90
46720;DHT22;32452;51.382;-0.002;2023-12-20T02:32:41;5.60;99.90
46720;DHT22;32452;51.382;-0.002;2023-12-20T02:35:26;5.70;99.90
46720;DHT22;32452;51.382;-0.002;2023-12-20T02:38:12;5.70;99.90
46720;DHT22;32452;51.382;-0.002;2023-12-20T02:40:57;5.60;99.90
46720;DHT22;32452;51.382;-0.002;2023-12-20T02:43:43;5.60;99.90
46720;DHT22;32452;51.382;-0.002;2023-12-20T02:46:29;5.60;99.90
46720;DHT22;32452;51.382;-0.002;2023-12-20T02:49:15;5.60;99.90
46720;DHT22;32452;51.382;-0.002;2023-12-20T02:52:00;5.60;99.90
46720;DHT22;32452;51.382;-0.002;2023-12-20T02:54:46;5.60;99.90
46720;DHT22;32452;51.382;-0.002;2023-12-20T02:57:31;5.60;99.90
46720;DHT22;32452;51.382;-0.002;2023-12-20T03:00:18;5.60;99.90
46720;DHT22;32452;51.382;-0.002;2023-12-20T03:03:04;5.60;99.90
46720;DHT22;32452;51.382;-0.002;2023-12-20T03:05:50;5.60;99.90
46720;DHT22;32452;51.382;-0.002;2023-12-20T03:08:35;5.60;99.90
46720;DHT22;32452;51.382;-0.002;2023-12-20T03:11:21;5.60;99.90
46720;DHT22;32452;51.382;-0.002;2023-12-20T03:14:06;5.60;99.90
46720;DHT22;32452;51.382;-0.002;2023-12-20T03:16:52;5.50;99.90
46720;DHT22;32452;51.382;-0.002;2023-12-20T03:19:37;5.50;99.90
46720;DHT22;32452;51.382;-0.002;2023-12-20T03:22:23;5.50;99.90
46720;DHT22;32452;51.382;-0.002;2023-12-20T03:25:09;5.50;99.90
46720;DHT22;32452;51.382;-0.002;2023-12-20T03:27:54;5.50;99.90
46720;DHT22;32452;51.382;-0.002;2023-12-20T03:30:40;5.50;99.90
46720;DHT22;32452;51.382;-0.002;2023-12-20T03:33:25;5.50;99.90
46720;DHT22;32452;51.382;-0.002;2023-12-20T03:36:11;5.50;99.90
46720;DHT22;32452;51.382;-0.002;2023-12-20T03:38:57;5.50;99.90
46720;DHT22;32452;51.382;-0.002;2023-12-20T03:41:42;5.50;99.90
46720;DHT22;32452;51.382;-0.002;2023-12-20T03:44:28;5.50;99.90
46720;DHT22;32452;51.382;-0.002;2023-12-20T03:47:13;5.50;99.90
46720;DHT22;32452;51.382;-0.002;2023-12-20T03:49:59;5.50;99.90
46720;DHT22;32452;51.382;-0.002;2023-12-20T03:52:44;5.50;99.90
46720;DHT22;32452;51.382;-0.002;2023-12-20T03:55:30;5.40;99.90
46720;DHT22;32452;51.382;-0.002;2023-12-20T03:58:15;5.40;99.90
46720;DHT22;32452;51.382;-0.002;2023-12-20T04:01:01;5.40;99.90
46720;DHT22;32452;51.382;-0.002;2023-12-20T04:03:47;5.40;99.90
46720;DHT22;32452;51.382;-0.002;2023-12-20T04:06:33;5.40;99.90
46720;DHT22;32452;51.382;-0.002;2023-12-20T04:09:19;5.40;99.90
46720;DHT22;32452;51.382;-0.002;2023-12-20T04:12:04;5.40;99.90
46720;DHT22;32452;51.382;-0.002;2023-12-20T04:14:50;5.40;99.90
46720;DHT22;32452;51.382;-0.002;2023-12-20T04:17:36;5.40;99.90
46720;DHT22;32452;51.382;-0.002;2023-12-20T04:20:22;5.40;99.90
46720;DHT22;32452;51.382;-0.002;2023-12-20T04:23:07;5.40;99.90
46720;DHT22;32452;51.382;-0.002;2023-12-20T04:25:54;5.30;99.90
46720;DHT22;32452;51.382;-0.002;2023-12-20T04:28:39;5.30;99.90
46720;DHT22;32452;51.382;-0.002;2023-12-20T04:31:25;5.30;99.90
46720;DHT22;32452;51.382;-0.002;2023-12-20T04:34:11;5.30;99.90
46720;DHT22;32452;51.382;-0.002;2023-12-20T04:36:56;5.30;99.90
46720;DHT22;32452;51.382;-0.002;2023-12-20T04:39:42;5.30;99.90
46720;DHT22;32452;51.382;-0.002;2023-12-20T04:42:27;5.40;99.90
46720;DHT22;32452;51.382;-0.002;2023-12-20T04:45:13;5.40;99.90
46720;DHT22;32452;51.382;-0.002;2023-12-20T04:48:01;5.40;99.90
46720;DHT22;32452;51.382;-0.002;2023-12-20T04:50:47;5.40;99.90
46720;DHT22;32452;51.382;-0.002;2023-12-20T04:53:33;5.40;99.90
46720;DHT22;32452;51.382;-0.002;2023-12-20T04:56:18;5.40;99.90
46720;DHT22;32452;51.382;-0.002;2023-12-20T04:59:04;5.40;99.90
46720;DHT22;32452;51.382;-0.002;2023-12-20T05:01:51;5.40;99.90
46720;DHT22;32452;51.382;-0.002;2023-12-20T05:04:37;5.40;99.90
46720;DHT22;32452;51.382;-0.002;2023-12-20T05:07:22;5.40;99.90
46720;DHT22;32452;51.382;-0.002;2023-12-20T05:10:08;5.40;99.90
46720;DHT22;32452;51.382;-0.002;2023-12-20T05:12:54;5.40;99.90
46720;DHT22;32452;51.382;-0.002;2023-12-20T05:15:39;5.40;99.90
46720;DHT22;32452;51.382;-0.002;2023-12-20T05:18:25;5.40;99.90
46720;DHT22;32452;51.382;-0.002;2023-12-20T05:21:11;5.40;99.90
46720;DHT22;32452;51.382;-0.002;2023-12-20T05:23:56;5.40;99.90
46720;DHT22;32452;51.382;-0.002;2023-12-20T05:26:42;5.40;99.90
46720;DHT22;32452;51.382;-0.002;2023-12-20T05:29:27;5.40;99.90
46720;DHT22;32452;51.382;-0.002;2023-12-20T05:32:13;5.40;99.90
46720;DHT22;32452;51.382;-0.002;2023-12-20T05:34:58;5.40;99.90
46720;DHT22;32452;51.382;-0.002;2023-12-20T05:37:44;5.40;99.90
46720;DHT22;32452;51.382;-0.002;2023-12-20T05:40:30;5.40;99.90
46720;DHT22;32452;51.382;-0.002;2023-12-20T05:43:16;5.40;99.90
46720;DHT22;32452;51.382;-0.002;2023-12-20T05:46:02;5.40;99.90
46720;DHT22;32452;51.382;-0.002;2023-12-20T05:48:47;5.40;99.90
46720;DHT22;32452;51.382;-0.002;2023-12-20T05:51:34;5.40;99.90
46720;DHT22;32452;51.382;-0.002;2023-12-20T05:54:19;5.40;99.90
46720;DHT22;32452;51.382;-0.002;2023-12-20T05:57:05;5.40;99.90
46720;DHT22;32452;51.382;-0.002;2023-12-20T05:59:51;5.40;99.90
46720;DHT22;32452;51.382;-0.002;2023-12-20T06:02:37;5.40;99.90
46720;DHT22;32452;51.382;-0.002;2023-12-20T06:05:22;5.50;99.90
46720;DHT22;32452;51.382;-0.002;2023-12-20T06:08:08;5.50;99.90
46720;DHT22;32452;51.382;-0.002;2023-12-20T06:10:53;5.40;99.90
46720;DHT22;32452;51.382;-0.002;2023-12-20T06:13:39;5.50;99.90
46720;DHT22;32452;51.382;-0.002;2023-12-20T06:16:24;5.50;99.90
46720;DHT22;32452;51.382;-0.002;2023-12-20T06:19:10;5.50;99.90
46720;DHT22;32452;51.382;-0.002;2023-12-20T06:21:56;5.50;99.90
46720;DHT22;32452;51.382;-0.002;2023-12-20T06:24:41;5.50;99.90
46720;DHT22;32452;51.382;-0.002;2023-12-20T06:27:27;5.50;99.90
46720;DHT22;32452;51.382;-0.002;2023-12-20T06:30:12;5.50;99.90
46720;DHT22;32452;51.382;-0.002;2023-12-20T06:32:58;5.50;99.90
46720;DHT22;32452;51.382;-0.002;2023-12-20T06:35:44;5.50;99.90
46720;DHT22;32452;51.382;-0.002;2023-12-20T06:38:29;5.50;99.90
46720;DHT22;32452;51.382;-0.002;2023-12-20T06:41:15;5.50;99.90
46720;DHT22;32452;51.382;-0.002;2023-12-20T06:44:01;5.60;99.90
46720;DHT22;32452;51.382;-0.002;2023-12-20T06:46:47;5.60;99.90
46720;DHT22;32452;51.382;-0.002;2023-12-20T06:49:33;5.60;99.90
46720;DHT22;32452;51.382;-0.002;2023-12-20T06:52:18;5.60;99.90
46720;DHT22;32452;51.382;-0.002;2023-12-20T06:55:04;5.60;99.90
46720;DHT22;32452;51.382;-0.002;2023-12-20T06:57:50;5.60;99.90
46720;DHT22;32452;51.382;-0.002;2023-12-20T07:00:36;5.50;99.90
46720;DHT22;32452;51.382;-0.002;2023-12-20T07:03:21;5.60;99.90
46720;DHT22;32452;51.382;-0.002;2023-12-20T07:06:10;5.60;99.90
46720;DHT22;32452;51.382;-0.002;2023-12-20T07:08:58;5.60;99.90
46720;DHT22;32452;51.382;-0.002;2023-12-20T07:11:44;5.60;99.90
46720;DHT22;32452;51.382;-0.002;2023-12-20T07:14:29;5.60;99.90
46720;DHT22;32452;51.382;-0.002;2023-12-20T07:17:15;5.60;99.90
46720;DHT22;32452;51.382;-0.002;2023-12-20T07:20:01;5.60;99.90
46720;DHT22;32452;51.382;-0.002;2023-12-20T07:22:49;5.60;99.90
46720;DHT22;32452;51.382;-0.002;2023-12-20T07:25:35;5.70;99.90
46720;DHT22;32452;51.382;-0.002;2023-12-20T07:28:21;5.70;99.90
46720;DHT22;32452;51.382;-0.002;2023-12-20T07:31:07;5.70;99.90
46720;DHT22;32452;51.382;-0.002;2023-12-20T07:33:52;5.70;99.90
46720;DHT22;32452;51.382;-0.002;2023-12-20T07:36:38;5.70;99.90
46720;DHT22;32452;51.382;-0.002;2023-12-20T07:39:23;5.70;99.90
46720;DHT22;32452;51.382;-0.002;2023-12-20T07:42:09;5.70;99.90
46720;DHT22;32452;51.382;-0.002;2023-12-20T07:44:55;5.70;99.90
46720;DHT22;32452;51.382;-0.002;2023-12-20T07:47:40;5.80;99.90
46720;DHT22;32452;51.382;-0.002;2023-12-20T07:50:33;5.80;99.90
46720;DHT22;32452;51.382;-0.002;2023-12-20T07:53:19;5.80;99.90
46720;DHT22;32452;51.382;-0.002;2023-12-20T07:56:18;5.90;99.90
46720;DHT22;32452;51.382;-0.002;2023-12-20T07:59:04;5.90;99.90
46720;DHT22;32452;51.382;-0.002;2023-12-20T08:01:52;5.90;99.90
46720;DHT22;32452;51.382;-0.002;2023-12-20T08:04:37;5.90;99.90
46720;DHT22;32452;51.382;-0.002;2023-12-20T08:07:23;5.90;99.90
46720;DHT22;32452;51.382;-0.002;2023-12-20T08:10:09;6.00;99.90
46720;DHT22;32452;51.382;-0.002;2023-12-20T08:12:55;6.00;99.90
46720;DHT22;32452;51.382;-0.002;2023-12-20T08:15:41;6.00;99.90
46720;DHT22;32452;51.382;-0.002;2023-12-20T08:18:26;6.00;99.90
46720;DHT22;32452;51.382;-0.002;2023-12-20T08:21:12;6.00;99.90
46720;DHT22;32452;51.382;-0.002;2023-12-20T08:23:58;6.10;99.90
46720;DHT22;32452;51.382;-0.002;2023-12-20T08:26:43;6.10;99.90
46720;DHT22;32452;51.382;-0.002;2023-12-20T08:29:29;6.10;99.90
46720;DHT22;32452;51.382;-0.002;2023-12-20T08:32:15;6.20;99.90
46720;DHT22;32452;51.382;-0.002;2023-12-20T08:35:00;6.20;99.90
46720;DHT22;32452;51.382;-0.002;2023-12-20T08:37:46;6.20;99.90
46720;DHT22;32452;51.382;-0.002;2023-12-20T08:40:32;6.20;99.90
46720;DHT22;32452;51.382;-0.002;2023-12-20T08:43:17;6.30;99.90
46720;DHT22;32452;51.382;-0.002;2023-12-20T08:46:03;6.30;99.90
46720;DHT22;32452;51.382;-0.002;2023-12-20T08:48:49;6.30;99.90
46720;DHT22;32452;51.382;-0.002;2023-12-20T08:51:34;6.40;99.90
46720;DHT22;32452;51.382;-0.002;2023-12-20T08:54:20;6.40;99.90
46720;DHT22;32452;51.382;-0.002;2023-12-20T08:57:05;6.40;99.90
46720;DHT22;32452;51.382;-0.002;2023-12-20T08:59:52;6.60;99.90
46720;DHT22;32452;51.382;-0.002;2023-12-20T09:02:37;6.70;99.90
46720;DHT22;32452;51.382;-0.002;2023-12-20T09:05:23;7.00;99.90
46720;DHT22;32452;51.382;-0.002;2023-12-20T09:08:08;7.40;99.90
46720;DHT22;32452;51.382;-0.002;2023-12-20T09:10:55;7.70;99.90
46720;DHT22;32452;51.382;-0.002;2023-12-20T09:13:41;8.20;99.90
46720;DHT22;32452;51.382;-0.002;2023-12-20T09:16:27;8.30;99.90
46720;DHT22;32452;51.382;-0.002;2023-12-20T09:19:13;8.60;99.90
46720;DHT22;32452;51.382;-0.002;2023-12-20T09:21:58;9.00;99.90
46720;DHT22;32452;51.382;-0.002;2023-12-20T09:24:44;9.40;99.90
46720;DHT22;32452;51.382;-0.002;2023-12-20T09:27:29;9.70;99.90
46720;DHT22;32452;51.382;-0.002;2023-12-20T09:30:15;10.10;99.90
46720;DHT22;32452;51.382;-0.002;2023-12-20T09:33:12;10.40;99.90
46720;DHT22;32452;51.382;-0.002;2023-12-20T09:35:58;10.80;99.90
46720;DHT22;32452;51.382;-0.002;2023-12-20T09:38:43;11.10;99.90
46720;DHT22;32452;51.382;-0.002;2023-12-20T09:41:37;11.40;99.90
46720;DHT22;32452;51.382;-0.002;2023-12-20T09:44:30;11.60;99.90
46720;DHT22;32452;51.382;-0.002;2023-12-20T09:47:20;11.90;99.90
46720;DHT22;32452;51.382;-0.002;2023-12-20T09:50:11;12.10;99.90
46720;DHT22;32452;51.382;-0.002;2023-12-20T09:53:02;12.30;99.90
46720;DHT22;32452;51.382;-0.002;2023-12-20T09:55:50;12.30;99.90
46720;DHT22;32452;51.382;-0.002;2023-12-20T09:58:38;12.20;99.90
46720;DHT22;32452;51.382;-0.002;2023-12-20T10:01:27;11.90;99.90
46720;DHT22;32452;51.382;-0.002;2023-12-20T10:04:15;11.60;99.90
46720;DHT22;32452;51.382;-0.002;2023-12-20T10:07:14;11.20;99.90
46720;DHT22;32452;51.382;-0.002;2023-12-20T10:10:02;10.70;99.90
46720;DHT22;32452;51.382;-0.002;2023-12-20T10:13:05;10.40;99.90
46720;DHT22;32452;51.382;-0.002;2023-12-20T10:15:55;10.10;99.90
46720;DHT22;32452;51.382;-0.002;2023-12-20T10:18:43;9.90;99.90
46720;DHT22;32452;51.382;-0.002;2023-12-20T10:21:31;9.70;99.90
46720;DHT22;32452;51.382;-0.002;2023-12-20T10:24:18;9.50;99.90
46720;DHT22;32452;51.382;-0.002;2023-12-20T10:27:06;9.40;99.90
46720;DHT22;32452;51.382;-0.002;2023-12-20T10:29:52;9.30;99.90
46720;DHT22;32452;51.382;-0.002;2023-12-20T10:32:38;9.30;99.90
46720;DHT22;32452;51.382;-0.002;2023-12-20T10:35:24;9.20;99.90
46720;DHT22;32452;51.382;-0.002;2023-12-20T10:38:10;9.10;99.90
46720;DHT22;32452;51.382;-0.002;2023-12-20T10:41:01;9.10;99.90
46720;DHT22;32452;51.382;-0.002;2023-12-20T10:44:00;9.10;99.90
46720;DHT22;32452;51.382;-0.002;2023-12-20T10:46:47;9.20;99.90
46720;DHT22;32452;51.382;-0.002;2023-12-20T10:49:39;9.20;99.90
46720;DHT22;32452;51.382;-0.002;2023-12-20T10:52:28;9.20;99.90
46720;DHT22;32452;51.382;-0.002;2023-12-20T10:55:14;9.30;99.90
46720;DHT22;32452;51.382;-0.002;2023-12-20T10:58:02;9.30;99.90
46720;DHT22;32452;51.382;-0.002;2023-12-20T11:00:59;9.30;99.90
46720;DHT22;32452;51.382;-0.002;2023-12-20T11:03:50;9.30;99.90
46720;DHT22;32452;51.382;-0.002;2023-12-20T11:07:12;9.30;99.90
46720;DHT22;32452;51.382;-0.002;2023-12-20T11:10:13;9.20;99.90
46720;DHT22;32452;51.382;-0.002;2023-12-20T11:13:18;9.20;99.90
46720;DHT22;32452;51.382;-0.002;2023-12-20T11:16:06;9.20;99.90
46720;DHT22;32452;51.382;-0.002;2023-12-20T11:18:54;9.10;99.90
46720;DHT22;32452;51.382;-0.002;2023-12-20T11:21:40;9.10;99.90
46720;DHT22;32452;51.382;-0.002;2023-12-20T11:24:26;9.10;99.90
46720;DHT22;32452;51.382;-0.002;2023-12-20T11:27:13;9.10;99.90
46720;DHT22;32452;51.382;-0.002;2023-12-20T11:29:59;9.10;99.90
46720;DHT22;32452;51.382;-0.002;2023-12-20T11:32:46;9.10;99.90
46720;DHT22;32452;51.382;-0.002;2023-12-20T11:35:33;9.10;99.90
46720;DHT22;32452;51.382;-0.002;2023-12-20T11:38:21;9.10;99.90
46720;DHT22;32452;51.382;-0.002;2023-12-20T11:41:07;9.10;99.90
46720;DHT22;32452;51.382;-0.002;2023-12-20T11:43:54;9.10;99.90
46720;DHT22;32452;51.382;-0.002;2023-12-20T11:46:44;9.10;99.90
46720;DHT22;32452;51.382;-0.002;2023-12-20T11:49:31;9.20;99.90
46720;DHT22;32452;51.382;-0.002;2023-12-20T11:52:19;9.20;99.90
46720;DHT22;32452;51.382;-0.002;2023-12-20T11:55:05;9.30;99.90
46720;DHT22;32452;51.382;-0.002;2023-12-20T11:57:51;9.30;99.90
46720;DHT22;32452;51.382;-0.002;2023-12-20T12:00:38;9.40;99.90
46720;DHT22;32452;51.382;-0.002;2023-12-20T12:03:24;9.50;99.90
46720;DHT22;32452;51.382;-0.002;2023-12-20T12:06:09;9.60;99.90
46720;DHT22;32452;51.382;-0.002;2023-12-20T12:08:55;9.70;99.90
46720;DHT22;32452;51.382;-0.002;2023-12-20T12:11:42;9.80;99.90
46720;DHT22;32452;51.382;-0.002;2023-12-20T12:14:29;10.10;99.90
46720;DHT22;32452;51.382;-0.002;2023-12-20T12:17:17;10.30;99.90
46720;DHT22;32452;51.382;-0.002;2023-12-20T12:20:05;10.50;99.90
46720;DHT22;32452;51.382;-0.002;2023-12-20T12:23:05;10.70;99.90
46720;DHT22;32452;51.382;-0.002;2023-12-20T12:25:54;10.70;99.90
46720;DHT22;32452;51.382;-0.002;2023-12-20T12:28:45;10.70;99.90
46720;DHT22;32452;51.382;-0.002;2023-12-20T12:31:33;10.70;99.90
46720;DHT22;32452;51.382;-0.002;2023-12-20T12:34:19;10.80;99.90
46720;DHT22;32452;51.382;-0.002;2023-12-20T12:37:05;11.00;99.90
46720;DHT22;32452;51.382;-0.002;2023-12-20T12:39:55;11.20;99.90
46720;DHT22;32452;51.382;-0.002;2023-12-20T12:42:46;11.60;99.90
46720;DHT22;32452;51.382;-0.002;2023-12-20T12:45:33;12.20;99.90
46720;DHT22;32452;51.382;-0.002;2023-12-20T12:48:18;12.60;99.90
46720;DHT22;32452;51.382;-0.002;2023-12-20T12:51:05;12.90;99.90
46720;DHT22;32452;51.382;-0.002;2023-12-20T12:53:53;13.20;99.90
46720;DHT22;32452;51.382;-0.002;2023-12-20T12:56:39;13.50;99.90
46720;DHT22;32452;51.382;-0.002;2023-12-20T12:59:25;13.80;99.90
46720;DHT22;32452;51.382;-0.002;2023-12-20T13:02:11;14.00;99.90
46720;DHT22;32452;51.382;-0.002;2023-12-20T13:04:56;13.90;99.90
46720;DHT22;32452;51.382;-0.002;2023-12-20T13:07:42;13.70;99.90
46720;DHT22;32452;51.382;-0.002;2023-12-20T13:10:31;13.50;99.90
46720;DHT22;32452;51.382;-0.002;2023-12-20T13:13:16;13.30;99.90
46720;DHT22;32452;51.382;-0.002;2023-12-20T13:16:03;13.10;99.90
46720;DHT22;32452;51.382;-0.002;2023-12-20T13:18:48;13.00;99.90
46720;DHT22;32452;51.382;-0.002;2023-12-20T13:21:35;13.10;99.90
46720;DHT22;32452;51.382;-0.002;2023-12-20T13:24:20;13.00;99.90
46720;DHT22;32452;51.382;-0.002;2023-12-20T13:27:07;12.80;99.90
46720;DHT22;32452;51.382;-0.002;2023-12-20T13:29:53;12.70;99.90
46720;DHT22;32452;51.382;-0.002;2023-12-20T13:32:40;12.50;99.90
46720;DHT22;32452;51.382;-0.002;2023-12-20T13:35:26;12.40;99.90
46720;DHT22;32452;51.382;-0.002;2023-12-20T13:38:13;12.30;99.90
46720;DHT22;32452;51.382;-0.002;2023-12-20T13:40:58;12.20;99.90
46720;DHT22;32452;51.382;-0.002;2023-12-20T13:43:44;12.00;99.90
46720;DHT22;32452;51.382;-0.002;2023-12-20T13:46:31;12.00;99.90
46720;DHT22;32452;51.382;-0.002;2023-12-20T13:49:17;11.80;99.90
46720;DHT22;32452;51.382;-0.002;2023-12-20T13:52:03;11.60;99.90
46720;DHT22;32452;51.382;-0.002;2023-12-20T13:54:49;11.50;99.90
46720;DHT22;32452;51.382;-0.002;2023-12-20T13:57:35;11.40;99.90
46720;DHT22;32452;51.382;-0.002;2023-12-20T14:00:40;11.40;99.90
46720;DHT22;32452;51.382;-0.002;2023-12-20T14:03:26;11.30;99.90
46720;DHT22;32452;51.382;-0.002;2023-12-20T14:06:12;11.30;99.90
46720;DHT22;32452;51.382;-0.002;2023-12-20T14:08:59;11.20;99.90
46720;DHT22;32452;51.382;-0.002;2023-12-20T14:11:48;11.20;99.90
46720;DHT22;32452;51.382;-0.002;2023-12-20T14:14:34;11.10;99.90
46720;DHT22;32452;51.382;-0.002;2023-12-20T14:17:19;11.10;99.90
46720;DHT22;32452;51.382;-0.002;2023-12-20T14:20:06;11.10;99.90
46720;DHT22;32452;51.382;-0.002;2023-12-20T14:22:55;11.00;99.90
46720;DHT22;32452;51.382;-0.002;2023-12-20T14:25:41;11.10;99.90
46720;DHT22;32452;51.382;-0.002;2023-12-20T14:28:41;11.10;99.90
46720;DHT22;32452;51.382;-0.002;2023-12-20T14:31:27;11.20;99.90
46720;DHT22;32452;51.382;-0.002;2023-12-20T14:34:12;11.20;99.90
46720;DHT22;32452;51.382;-0.002;2023-12-20T14:36:58;11.20;99.90
46720;DHT22;32452;51.382;-0.002;2023-12-20T14:39:44;11.30;99.90
46720;DHT22;32452;51.382;-0.002;2023-12-20T14:42:29;11.30;99.90
46720;DHT22;32452;51.382;-0.002;2023-12-20T14:45:15;11.30;99.90
46720;DHT22;32452;51.382;-0.002;2023-12-20T14:48:03;11.30;99.90
46720;DHT22;32452;51.382;-0.002;2023-12-20T14:50:49;11.30;99.90
46720;DHT22;32452;51.382;-0.002;2023-12-20T14:53:35;11.20;99.90
46720;DHT22;32452;51.382;-0.002;2023-12-20T14:56:25;11.20;99.90
46720;DHT22;32452;51.382;-0.002;2023-12-20T14:59:11;11.10;99.90
46720;DHT22;32452;51.382;-0.002;2023-12-20T15:01:57;11.00;99.90
46720;DHT22;32452;51.382;-0.002;2023-12-20T15:04:43;11.00;99.90
46720;DHT22;32452;51.382;-0.002;2023-12-20T15:07:29;10.90;99.90
46720;DHT22;32452;51.382;-0.002;2023-12-20T15:10:15;10.90;99.90
46720;DHT22;32452;51.382;-0.002;2023-12-20T15:13:02;10.90;99.90
46720;DHT22;32452;51.382;-0.002;2023-12-20T15:15:48;10.80;99.90
46720;DHT22;32452;51.382;-0.002;2023-12-20T15:18:34;10.80;99.90
46720;DHT22;32452;51.382;-0.002;2023-12-20T15:21:19;10.80;99.90
46720;DHT22;32452;51.382;-0.002;2023-12-20T15:24:07;10.70;99.90
46720;DHT22;32452;51.382;-0.002;2023-12-20T15:26:59;10.70;99.90
46720;DHT22;32452;51.382;-0.002;2023-12-20T15:29:45;10.70;99.90
46720;DHT22;32452;51.382;-0.002;2023-12-20T15:32:31;10.70;99.90
46720;DHT22;32452;51.382;-0.002;2023-12-20T15:35:18;10.60;99.90
46720;DHT22;32452;51.382;-0.002;2023-12-20T15:38:03;10.70;99.90
46720;DHT22;32452;51.382;-0.002;2023-12-20T15:40:50;10.60;99.90
46720;DHT22;32452;51.382;-0.002;2023-12-20T15:43:36;10.60;99.90
46720;DHT22;32452;51.382;-0.002;2023-12-20T15:46:22;10.60;99.90
46720;DHT22;32452;51.382;-0.002;2023-12-20T15:49:08;10.60;99.90
46720;DHT22;32452;51.382;-0.002;2023-12-20T15:51:56;10.60;99.90
46720;DHT22;32452;51.382;-0.002;2023-12-20T15:54:42;10.60;99.90
46720;DHT22;32452;51.382;-0.002;2023-12-20T15:57:28;10.50;99.90
46720;DHT22;32452;51.382;-0.002;2023-12-20T16:00:34;10.50;99.90
46720;DHT22;32452;51.382;-0.002;2023-12-20T16:03:25;10.50;99.90
46720;DHT22;32452;51.382;-0.002;2023-12-20T16:06:13;10.40;99.90
46720;DHT22;32452;51.382;-0.002;2023-12-20T16:09:06;10.40;99.90
46720;DHT22;32452;51.382;-0.002;2023-12-20T16:11:52;10.40;99.90
46720;DHT22;32452;51.382;-0.002;2023-12-20T16:14:37;10.40;99.90
46720;DHT22;32452;51.382;-0.002;2023-12-20T16:17:25;10.40;99.90
46720;DHT22;32452;51.382;-0.002;2023-12-20T16:20:11;10.40;99.90
46720;DHT22;32452;51.382;-0.002;2023-12-20T16:22:58;10.40;99.90
46720;DHT22;32452;51.382;-0.002;2023-12-20T16:25:44;10.40;99.90
46720;DHT22;32452;51.382;-0.002;2023-12-20T16:28:29;10.40;99.90
46720;DHT22;32452;51.382;-0.002;2023-12-20T16:31:16;10.40;99.90
46720;DHT22;32452;51.382;-0.002;2023-12-20T16:34:02;10.50;99.90
46720;DHT22;32452;51.382;-0.002;2023-12-20T16:36:53;10.40;99.90
46720;DHT22;32452;51.382;-0.002;2023-12-20T16:39:40;10.40;99.90
46720;DHT22;32452;51.382;-0.002;2023-12-20T16:42:25;10.50;99.90
46720;DHT22;32452;51.382;-0.002;2023-12-20T16:45:11;10.50;99.90
46720;DHT22;32452;51.382;-0.002;2023-12-20T16:47:56;10.50;99.90
46720;DHT22;32452;51.382;-0.002;2023-12-20T16:50:42;10.50;99.90
46720;DHT22;32452;51.382;-0.002;2023-12-20T16:53:30;10.50;99.90
46720;DHT22;32452;51.382;-0.002;2023-12-20T16:56:16;10.50;99.90
46720;DHT22;32452;51.382;-0.002;2023-12-20T16:59:01;10.50;99.90
46720;DHT22;32452;51.382;-0.002;2023-12-20T17:01:47;10.50;99.90
46720;DHT22;32452;51.382;-0.002;2023-12-20T17:04:34;10.50;99.90
46720;DHT22;32452;51.382;-0.002;2023-12-20T17:07:21;10.50;99.90
46720;DHT22;32452;51.382;-0.002;2023-12-20T17:10:07;10.40;99.90
46720;DHT22;32452;51.382;-0.002;2023-12-20T17:12:53;10.40;99.90
46720;DHT22;32452;51.382;-0.002;2023-12-20T17:15:39;10.40;99.90
46720;DHT22;32452;51.382;-0.002;2023-12-20T17:18:26;10.40;99.90
46720;DHT22;32452;51.382;-0.002;2023-12-20T17:21:12;10.40;99.90
46720;DHT22;32452;51.382;-0.002;2023-12-20T17:23:58;10.40;99.90
46720;DHT22;32452;51.382;-0.002;2023-12-20T17:26:44;10.40;99.90